Time;durP1;ratioP1;P1;durP2;ratioP2;P2;SDS_P1;SDS_P2;PMS_P1;PMS_P2;Temp;Humidity;BMP_temperature;BMP_pressure;BME280_temperature;BME280_humidity;BME280_pressure;Samples;Min_cycle;Max_cycle;Signal;HPM_P1;HPM_P2
2023/09/21 00:01:11;;;;;;;;;;;27.60;99.90;;;;;;5028755;28;19971;-51
2023/09/21 00:03:39;;;;;;;;;;;27.50;99.90;;;;;;5029305;28;19916;-49
2023/09/21 00:06:05;;;;;;;;;;;27.60;99.90;;;;;;5029375;28;19917;-51
2023/09/21 00:08:31;;;;;;;;;;;27.50;99.90;;;;;;5032841;28;20413;-50
2023/09/21 00:10:58;;;;;;;;;;;27.50;99.90;;;;;;5028996;28;19955;-50
2023/09/21 00:13:27;;;;;;;;;;;27.50;99.90;;;;;;5028634;28;19948;-49
2023/09/21 00:16:02;;;;;;;;;;;27.50;99.90;;;;;;5031768;28;19923;-49
2023/09/21 00:18:29;;;;;;;;;;;27.50;99.90;;;;;;5033142;28;19905;-51
2023/09/21 00:20:55;;;;;;;;;;;27.50;99.90;;;;;;5032952;28;19913;-49
2023/09/21 00:23:26;;;;;;;;;;;27.40;99.90;;;;;;5032984;28;19905;-50
2023/09/21 00:25:57;;;;;;;;;;;27.40;99.90;;;;;;5032489;28;19905;-50
2023/09/21 00:28:23;;;;;;;;;;;27.40;99.90;;;;;;5030558;28;19913;-49
2023/09/21 00:30:52;;;;;;;;;;;27.30;99.90;;;;;;5032322;28;19905;-50
2023/09/21 00:33:19;;;;;;;;;;;27.30;99.90;;;;;;5032933;28;19971;-50
2023/09/21 00:35:45;;;;;;;;;;;27.20;99.90;;;;;;5029671;28;19917;-50
2023/09/21 00:38:14;;;;;;;;;;;27.20;99.90;;;;;;5032528;28;19912;-50
2023/09/21 00:40:40;;;;;;;;;;;27.20;99.90;;;;;;5032514;28;20454;-49
2023/09/21 00:43:10;;;;;;;;;;;27.10;99.90;;;;;;5032359;28;20027;-50
2023/09/21 00:45:36;;;;;;;;;;;27.10;99.90;;;;;;5031727;28;20342;-50
2023/09/21 00:48:04;;;;;;;;;;;27.00;99.90;;;;;;5031244;28;19905;-50
2023/09/21 00:50:30;;;;;;;;;;;27.00;99.90;;;;;;5031707;28;20374;-50
2023/09/21 00:52:56;;;;;;;;;;;26.90;99.90;;;;;;5032609;28;19913;-50
2023/09/21 00:55:28;;;;;;;;;;;26.90;99.90;;;;;;5031903;28;19913;-50
2023/09/21 00:57:56;;;;;;;;;;;26.90;99.90;;;;;;5032056;28;19924;-50
2023/09/21 01:02:50;;;;;;;;;;;26.90;99.90;;;;;;5029468;28;19921;-55
2023/09/21 01:05:16;;;;;;;;;;;26.90;99.90;;;;;;5018067;28;19935;-56
2023/09/21 01:07:42;;;;;;;;;;;26.80;99.90;;;;;;5022853;28;20023;-55
2023/09/21 01:10:11;;;;;;;;;;;26.80;99.90;;;;;;5020523;28;20391;-55
2023/09/21 01:12:37;;;;;;;;;;;26.80;99.90;;;;;;5013303;28;20000;-56
2023/09/21 01:15:04;;;;;;;;;;;26.80;99.90;;;;;;5013104;28;19906;-55
2023/09/21 01:17:30;;;;;;;;;;;26.80;99.90;;;;;;5020768;28;19913;-56
2023/09/21 01:19:57;;;;;;;;;;;26.70;99.90;;;;;;5029875;28;19909;-55
2023/09/21 01:22:25;;;;;;;;;;;26.70;99.90;;;;;;5026270;28;19909;-55
2023/09/21 01:24:51;;;;;;;;;;;26.70;99.90;;;;;;5033942;28;20355;-54
2023/09/21 01:27:17;;;;;;;;;;;26.70;99.90;;;;;;5033779;28;19935;-54
2023/09/21 01:29:44;;;;;;;;;;;26.70;99.90;;;;;;5015843;28;19909;-52
2023/09/21 01:32:09;;;;;;;;;;;26.70;99.90;;;;;;5027452;28;19909;-53
2023/09/21 01:34:35;;;;;;;;;;;26.70;99.90;;;;;;5014526;28;19912;-52
2023/09/21 01:37:01;;;;;;;;;;;26.60;99.90;;;;;;5012531;28;20023;-53
2023/09/21 01:39:27;;;;;;;;;;;26.60;99.90;;;;;;5014265;28;20052;-53
2023/09/21 01:41:53;;;;;;;;;;;26.60;99.90;;;;;;5015497;28;19996;-53
2023/09/21 01:44:21;;;;;;;;;;;26.60;99.90;;;;;;5032717;28;19912;-54
2023/09/21 01:46:49;;;;;;;;;;;26.60;99.90;;;;;;5033997;28;19971;-54
2023/09/21 01:49:16;;;;;;;;;;;26.60;99.90;;;;;;5034318;28;19944;-54
2023/09/21 01:51:42;;;;;;;;;;;26.60;99.90;;;;;;5034234;28;19905;-55
2023/09/21 01:54:07;;;;;;;;;;;26.60;99.90;;;;;;5034120;28;19909;-54
2023/09/21 01:56:34;;;;;;;;;;;26.60;99.90;;;;;;5033883;28;20055;-55
2023/09/21 01:59:00;;;;;;;;;;;26.60;99.90;;;;;;5033852;28;19909;-54
2023/09/21 02:01:26;;;;;;;;;;;26.50;99.90;;;;;;5034289;28;19924;-54
2023/09/21 02:03:56;;;;;;;;;;;26.50;99.90;;;;;;5033799;28;19905;-53
2023/09/21 02:06:22;;;;;;;;;;;26.50;99.90;;;;;;5033775;28;19912;-54
2023/09/21 02:08:49;;;;;;;;;;;26.50;99.90;;;;;;5033729;28;19905;-54
2023/09/21 02:11:14;;;;;;;;;;;26.50;99.90;;;;;;5033689;28;19905;-55
2023/09/21 02:13:40;;;;;;;;;;;26.50;99.90;;;;;;5033492;28;19912;-54
2023/09/21 02:16:06;;;;;;;;;;;26.50;99.90;;;;;;5033626;28;19917;-54
2023/09/21 02:18:32;;;;;;;;;;;26.50;99.90;;;;;;5033645;28;19909;-55
2023/09/21 02:20:59;;;;;;;;;;;26.50;99.90;;;;;;5015770;28;19996;-54
2023/09/21 02:23:24;;;;;;;;;;;26.50;99.90;;;;;;5033521;28;19931;-53
2023/09/21 02:25:52;;;;;;;;;;;26.40;99.90;;;;;;5033399;28;20406;-54
2023/09/21 02:28:18;;;;;;;;;;;26.50;99.90;;;;;;5033853;28;19995;-54
2023/09/21 02:30:47;;;;;;;;;;;26.40;99.90;;;;;;5033403;28;20404;-53
2023/09/21 02:33:15;;;;;;;;;;;26.40;99.90;;;;;;5033271;28;19905;-54
2023/09/21 02:35:41;;;;;;;;;;;26.40;99.90;;;;;;5033126;28;19920;-54
2023/09/21 02:38:09;;;;;;;;;;;26.40;99.90;;;;;;5033138;28;19905;-53
2023/09/21 02:40:35;;;;;;;;;;;26.40;99.90;;;;;;5033631;28;19909;-54
2023/09/21 02:43:00;;;;;;;;;;;26.30;99.90;;;;;;5033168;28;20365;-54
2023/09/21 02:45:29;;;;;;;;;;;26.30;99.90;;;;;;5033105;28;19913;-54
2023/09/21 02:48:00;;;;;;;;;;;26.30;99.90;;;;;;5033143;28;20319;-54
2023/09/21 02:50:27;;;;;;;;;;;26.30;99.90;;;;;;5032963;28;20309;-53
2023/09/21 02:53:04;;;;;;;;;;;26.30;99.90;;;;;;5032744;28;20323;-54
2023/09/21 02:55:30;;;;;;;;;;;26.30;99.90;;;;;;5033070;28;19990;-54
2023/09/21 02:57:58;;;;;;;;;;;26.20;99.90;;;;;;5032845;28;19917;-54
2023/09/21 03:00:34;;;;;;;;;;;26.20;99.90;;;;;;5015719;28;19928;-54
2023/09/21 03:03:04;;;;;;;;;;;26.20;99.90;;;;;;5032708;28;19917;-54
2023/09/21 03:05:33;;;;;;;;;;;26.20;99.90;;;;;;5015047;28;19959;-54
2023/09/21 03:08:08;;;;;;;;;;;26.20;99.90;;;;;;5032959;28;19905;-54
2023/09/21 03:10:36;;;;;;;;;;;26.20;99.90;;;;;;5032832;28;19905;-55
2023/09/21 03:13:02;;;;;;;;;;;26.20;99.90;;;;;;5015141;28;19927;-55
2023/09/21 03:15:27;;;;;;;;;;;26.20;99.90;;;;;;5032552;28;19917;-55
2023/09/21 03:17:53;;;;;;;;;;;26.10;99.90;;;;;;5032793;28;19959;-55
2023/09/21 03:20:31;;;;;;;;;;;26.10;99.90;;;;;;5015220;28;19912;-55
2023/09/21 03:22:57;;;;;;;;;;;26.10;99.90;;;;;;5032672;28;19905;-55
2023/09/21 03:25:28;;;;;;;;;;;26.10;99.90;;;;;;5032593;28;19916;-55
2023/09/21 03:27:54;;;;;;;;;;;26.10;99.90;;;;;;5032538;28;19905;-54
2023/09/21 03:30:20;;;;;;;;;;;26.10;99.90;;;;;;5015109;28;20003;-55
2023/09/21 03:32:46;;;;;;;;;;;26.00;99.90;;;;;;5032538;28;19905;-54
2023/09/21 03:35:12;;;;;;;;;;;26.00;99.90;;;;;;5032342;28;19920;-54
2023/09/21 03:37:41;;;;;;;;;;;26.00;99.90;;;;;;5032378;28;20290;-53
2023/09/21 03:40:07;;;;;;;;;;;26.00;99.90;;;;;;5032331;28;19944;-54
2023/09/21 03:42:33;;;;;;;;;;;26.00;99.90;;;;;;5034948;28;19909;-54
2023/09/21 03:44:59;;;;;;;;;;;26.00;99.90;;;;;;5036520;28;19912;-54
2023/09/21 03:47:24;;;;;;;;;;;26.00;99.90;;;;;;5036453;28;20325;-53
2023/09/21 03:49:50;;;;;;;;;;;26.00;99.90;;;;;;5036605;28;19901;-54
2023/09/21 03:52:16;;;;;;;;;;;26.00;99.90;;;;;;5020010;28;19912;-54
2023/09/21 03:54:42;;;;;;;;;;;26.10;99.90;;;;;;5034932;28;19909;-55
2023/09/21 03:57:11;;;;;;;;;;;26.10;99.90;;;;;;5034582;28;20374;-54
2023/09/21 03:59:40;;;;;;;;;;;26.10;99.90;;;;;;5034912;28;19956;-53
2023/09/21 04:02:09;;;;;;;;;;;26.10;99.90;;;;;;5036298;28;20302;-53
2023/09/21 04:04:35;;;;;;;;;;;26.10;99.90;;;;;;5035093;28;19909;-54
2023/09/21 04:07:00;;;;;;;;;;;26.10;99.90;;;;;;5035341;28;19911;-53
2023/09/21 04:09:26;;;;;;;;;;;26.10;99.90;;;;;;5035957;28;19978;-52
2023/09/21 04:11:52;;;;;;;;;;;26.10;99.90;;;;;;5035093;28;20473;-53
2023/09/21 04:14:17;;;;;;;;;;;26.10;99.90;;;;;;5034330;28;19970;-53
2023/09/21 04:16:43;;;;;;;;;;;26.00;99.90;;;;;;5035164;28;20477;-54
2023/09/21 04:19:10;;;;;;;;;;;26.10;99.90;;;;;;5017856;28;19909;-52
2023/09/21 04:21:39;;;;;;;;;;;26.10;99.90;;;;;;5016980;28;19992;-54
2023/09/21 04:24:05;;;;;;;;;;;26.00;99.90;;;;;;5034382;28;19908;-53
2023/09/21 04:26:31;;;;;;;;;;;26.00;99.90;;;;;;5033948;28;19947;-54
2023/09/21 04:28:56;;;;;;;;;;;26.00;99.90;;;;;;5018681;28;20282;-54
2023/09/21 04:31:22;;;;;;;;;;;25.90;99.90;;;;;;5034653;28;19905;-54
2023/09/21 04:33:48;;;;;;;;;;;25.90;99.90;;;;;;5034315;28;19912;-54
2023/09/21 04:36:13;;;;;;;;;;;25.90;99.90;;;;;;5035252;28;19921;-53
2023/09/21 04:38:39;;;;;;;;;;;25.90;99.90;;;;;;5034930;28;20425;-53
2023/09/21 04:41:05;;;;;;;;;;;25.90;99.90;;;;;;5033646;28;19999;-54
2023/09/21 04:43:32;;;;;;;;;;;25.80;99.90;;;;;;5034547;28;19905;-53
2023/09/21 04:45:59;;;;;;;;;;;25.80;99.90;;;;;;5016900;28;19916;-52
2023/09/21 04:48:25;;;;;;;;;;;25.80;99.90;;;;;;5034491;28;19964;-54
2023/09/21 04:50:51;;;;;;;;;;;25.80;99.90;;;;;;5034147;28;19951;-55
2023/09/21 04:53:16;;;;;;;;;;;25.80;99.90;;;;;;5035005;28;19905;-53
2023/09/21 04:55:42;;;;;;;;;;;25.90;99.90;;;;;;5035014;28;20374;-53
2023/09/21 04:58:08;;;;;;;;;;;25.80;99.90;;;;;;5016368;28;19905;-54
2023/09/21 05:00:33;;;;;;;;;;;25.80;99.90;;;;;;5033661;28;19905;-54
2023/09/21 05:02:59;;;;;;;;;;;25.80;99.90;;;;;;5033487;28;20375;-54
2023/09/21 05:05:26;;;;;;;;;;;25.80;99.90;;;;;;5014463;28;19916;-54
2023/09/21 05:07:52;;;;;;;;;;;25.80;99.90;;;;;;5014467;28;19976;-54
2023/09/21 05:10:18;;;;;;;;;;;25.80;99.90;;;;;;5014115;28;20360;-54
2023/09/21 05:12:43;;;;;;;;;;;25.90;99.90;;;;;;5024303;28;19962;-54
2023/09/21 05:15:11;;;;;;;;;;;25.80;99.90;;;;;;5033671;28;19909;-55
2023/09/21 05:17:36;;;;;;;;;;;25.80;99.90;;;;;;5033681;28;19936;-54
2023/09/21 05:20:06;;;;;;;;;;;25.80;99.90;;;;;;5034132;28;19905;-53
2023/09/21 05:22:32;;;;;;;;;;;25.80;99.90;;;;;;5034502;28;19932;-55
2023/09/21 05:25:00;;;;;;;;;;;25.80;99.90;;;;;;5033512;28;19963;-54
2023/09/21 05:27:29;;;;;;;;;;;25.80;99.90;;;;;;5015635;28;19955;-53
2023/09/21 05:29:55;;;;;;;;;;;25.80;99.90;;;;;;5033976;28;19909;-54
2023/09/21 05:32:21;;;;;;;;;;;25.80;99.90;;;;;;5035272;28;19909;-54
2023/09/21 05:34:47;;;;;;;;;;;25.80;99.90;;;;;;5033547;28;19905;-55
2023/09/21 05:37:14;;;;;;;;;;;25.80;99.90;;;;;;5015553;28;19961;-54
2023/09/21 05:39:40;;;;;;;;;;;25.80;99.90;;;;;;5034164;28;20351;-55
2023/09/21 05:42:06;;;;;;;;;;;25.80;99.90;;;;;;5033179;28;19909;-54
2023/09/21 05:44:31;;;;;;;;;;;25.70;99.90;;;;;;5033288;28;20015;-54
2023/09/21 05:46:57;;;;;;;;;;;25.70;99.90;;;;;;5032219;28;19905;-54
2023/09/21 05:49:22;;;;;;;;;;;25.70;99.90;;;;;;5033600;28;19909;-54
2023/09/21 05:51:56;;;;;;;;;;;25.60;99.90;;;;;;5031691;28;20264;-55
2023/09/21 05:54:24;;;;;;;;;;;25.60;99.90;;;;;;5032957;28;19912;-54
2023/09/21 05:56:51;;;;;;;;;;;25.60;99.90;;;;;;5032148;28;19913;-54
2023/09/21 05:59:17;;;;;;;;;;;25.60;99.90;;;;;;5014698;28;19909;-54
2023/09/21 06:01:43;;;;;;;;;;;25.50;99.90;;;;;;5032797;28;19967;-54
2023/09/21 06:04:12;;;;;;;;;;;25.50;99.90;;;;;;5031983;28;19905;-55
2023/09/21 06:06:41;;;;;;;;;;;25.50;99.90;;;;;;5033674;28;19917;-55
2023/09/21 06:09:08;;;;;;;;;;;25.50;99.90;;;;;;5032813;28;19905;-54
2023/09/21 06:11:33;;;;;;;;;;;25.50;99.90;;;;;;5033472;28;19951;-54
2023/09/21 06:13:59;;;;;;;;;;;25.40;99.90;;;;;;5015048;28;19905;-54
2023/09/21 06:16:25;;;;;;;;;;;25.40;99.90;;;;;;5033589;28;19916;-55
2023/09/21 06:18:50;;;;;;;;;;;25.40;99.90;;;;;;5032395;28;19951;-55
2023/09/21 06:21:17;;;;;;;;;;;25.40;99.90;;;;;;5033382;28;19944;-54
2023/09/21 06:23:44;;;;;;;;;;;25.40;99.90;;;;;;5032342;28;19912;-54
2023/09/21 06:26:15;;;;;;;;;;;25.40;99.90;;;;;;5033236;28;19988;-55
2023/09/21 06:28:43;;;;;;;;;;;25.30;99.90;;;;;;5032674;28;19952;-54
2023/09/21 06:31:13;;;;;;;;;;;25.30;99.90;;;;;;5033220;28;19912;-54
2023/09/21 06:33:39;;;;;;;;;;;25.30;99.90;;;;;;5032991;28;19909;-53
2023/09/21 06:36:05;;;;;;;;;;;25.30;99.90;;;;;;5032694;28;19959;-54
2023/09/21 06:38:30;;;;;;;;;;;25.30;99.90;;;;;;5032644;28;19905;-54
2023/09/21 06:40:57;;;;;;;;;;;25.30;99.90;;;;;;5032325;28;19996;-54
2023/09/21 06:43:26;;;;;;;;;;;25.30;99.90;;;;;;5033037;28;19913;-53
2023/09/21 06:45:51;;;;;;;;;;;25.30;99.90;;;;;;5032210;28;19909;-54
2023/09/21 06:48:17;;;;;;;;;;;25.30;99.90;;;;;;5032762;28;19906;-55
2023/09/21 06:50:43;;;;;;;;;;;25.30;99.90;;;;;;5031496;28;19912;-55
2023/09/21 06:53:08;;;;;;;;;;;25.30;99.90;;;;;;5033495;28;19928;-56
2023/09/21 06:55:34;;;;;;;;;;;25.30;99.90;;;;;;5032164;28;19913;-55
2023/09/21 06:58:00;;;;;;;;;;;25.30;99.90;;;;;;5033204;28;20310;-56
2023/09/21 07:00:26;;;;;;;;;;;25.30;99.90;;;;;;5032076;28;19909;-54
2023/09/21 07:02:53;;;;;;;;;;;25.30;99.90;;;;;;5032237;28;19927;-54
2023/09/21 07:05:19;;;;;;;;;;;25.30;99.90;;;;;;5032314;28;19959;-58
2023/09/21 07:07:45;;;;;;;;;;;25.40;99.90;;;;;;5032821;28;20260;-55
2023/09/21 07:10:11;;;;;;;;;;;25.40;99.90;;;;;;5032834;28;19936;-55
2023/09/21 07:12:38;;;;;;;;;;;25.40;99.90;;;;;;5031875;28;19905;-55
2023/09/21 07:15:03;;;;;;;;;;;25.40;99.90;;;;;;5032431;28;19905;-55
2023/09/21 07:17:29;;;;;;;;;;;25.40;99.90;;;;;;5031705;28;20298;-55
2023/09/21 07:19:55;;;;;;;;;;;25.40;99.90;;;;;;5032365;28;19909;-54
2023/09/21 07:22:20;;;;;;;;;;;25.50;99.90;;;;;;5031631;28;19952;-55
2023/09/21 07:24:47;;;;;;;;;;;25.50;99.90;;;;;;5032366;28;19964;-54
2023/09/21 07:27:14;;;;;;;;;;;25.50;99.90;;;;;;5031417;28;19919;-55
2023/09/21 07:29:40;;;;;;;;;;;25.60;99.90;;;;;;5032515;28;19905;-53
2023/09/21 07:32:08;;;;;;;;;;;25.60;99.90;;;;;;5031637;28;19905;-54
2023/09/21 07:34:34;;;;;;;;;;;25.60;99.90;;;;;;5032302;28;20382;-54
2023/09/21 07:37:00;;;;;;;;;;;25.60;99.90;;;;;;5032913;28;19983;-54
2023/09/21 07:39:28;;;;;;;;;;;25.70;99.90;;;;;;5031263;28;19905;-54
2023/09/21 07:41:54;;;;;;;;;;;25.70;99.90;;;;;;5032370;28;20274;-54
2023/09/21 07:44:22;;;;;;;;;;;25.70;99.90;;;;;;5032316;28;20257;-54
2023/09/21 07:46:49;;;;;;;;;;;25.70;99.90;;;;;;5032508;28;20279;-54
2023/09/21 07:49:15;;;;;;;;;;;25.70;99.90;;;;;;5031393;28;19912;-54
2023/09/21 07:51:41;;;;;;;;;;;25.80;99.90;;;;;;5032110;28;19905;-55
2023/09/21 07:54:07;;;;;;;;;;;25.70;99.90;;;;;;5012862;28;19912;-55
2023/09/21 07:56:32;;;;;;;;;;;25.80;99.90;;;;;;5033624;28;19967;-54
2023/09/21 07:58:58;;;;;;;;;;;25.80;99.90;;;;;;5031314;28;20347;-54
2023/09/21 08:01:26;;;;;;;;;;;25.80;99.90;;;;;;5031910;28;19917;-54
2023/09/21 08:03:52;;;;;;;;;;;25.80;99.90;;;;;;5031779;28;19919;-54
2023/09/21 08:06:19;;;;;;;;;;;25.80;99.90;;;;;;5011685;28;19917;-54
2023/09/21 08:08:46;;;;;;;;;;;25.80;99.90;;;;;;5012146;28;19953;-55
2023/09/21 08:11:12;;;;;;;;;;;25.90;99.90;;;;;;5012318;28;19906;-55
2023/09/21 08:13:38;;;;;;;;;;;25.90;99.90;;;;;;5027142;28;19912;-55
2023/09/21 08:16:04;;;;;;;;;;;25.90;99.90;;;;;;5031246;28;20022;-54
2023/09/21 08:18:29;;;;;;;;;;;26.00;99.90;;;;;;5031936;28;19956;-55
2023/09/21 08:20:55;;;;;;;;;;;26.00;99.90;;;;;;5031193;28;19968;-55
2023/09/21 08:23:21;;;;;;;;;;;26.00;99.90;;;;;;5032269;28;19905;-55
2023/09/21 08:25:46;;;;;;;;;;;26.10;99.90;;;;;;5030997;28;19912;-54
2023/09/21 08:28:12;;;;;;;;;;;26.10;99.90;;;;;;5033561;28;19905;-54
2023/09/21 08:30:38;;;;;;;;;;;26.10;99.90;;;;;;5034854;28;19915;-55
2023/09/21 08:33:07;;;;;;;;;;;26.10;99.90;;;;;;5035218;28;19912;-55
2023/09/21 08:35:33;;;;;;;;;;;26.20;99.90;;;;;;5035074;28;20429;-55
2023/09/21 08:37:59;;;;;;;;;;;26.20;99.90;;;;;;5035686;28;19909;-54
2023/09/21 08:40:25;;;;;;;;;;;26.20;99.90;;;;;;5035458;28;19920;-54
2023/09/21 08:42:51;;;;;;;;;;;26.20;99.90;;;;;;5016680;28;19905;-54
2023/09/21 08:45:19;;;;;;;;;;;26.30;99.90;;;;;;5035082;28;19951;-55
2023/09/21 08:47:46;;;;;;;;;;;26.30;99.90;;;;;;5034832;28;19909;-55
2023/09/21 08:50:13;;;;;;;;;;;26.30;99.90;;;;;;5034551;28;19956;-55
2023/09/21 08:52:41;;;;;;;;;;;26.30;99.90;;;;;;5034171;28;19905;-55
2023/09/21 08:55:09;;;;;;;;;;;26.30;99.90;;;;;;5034910;28;20371;-55
2023/09/21 08:57:36;;;;;;;;;;;26.30;99.90;;;;;;5034522;28;19924;-54
2023/09/21 09:00:06;;;;;;;;;;;26.40;99.90;;;;;;5034866;28;20218;-55
2023/09/21 09:02:35;;;;;;;;;;;26.40;99.90;;;;;;5034405;28;19987;-55
2023/09/21 09:05:07;;;;;;;;;;;26.40;99.90;;;;;;5034931;28;20267;-56
2023/09/21 09:07:39;;;;;;;;;;;26.40;99.90;;;;;;5035254;28;19955;-55
2023/09/21 09:10:09;;;;;;;;;;;26.40;99.90;;;;;;5034050;28;19909;-55
2023/09/21 09:12:35;;;;;;;;;;;26.40;99.90;;;;;;5034735;28;19935;-55
2023/09/21 09:15:03;;;;;;;;;;;26.40;99.90;;;;;;5026931;28;20008;-55
2023/09/21 09:17:30;;;;;;;;;;;26.50;99.90;;;;;;5035106;28;19917;-55
2023/09/21 09:19:57;;;;;;;;;;;26.50;99.90;;;;;;5033844;28;19909;-55
2023/09/21 09:22:23;;;;;;;;;;;26.50;99.90;;;;;;5034582;28;19932;-55
2023/09/21 09:24:49;;;;;;;;;;;26.60;99.90;;;;;;5034246;28;20359;-52
2023/09/21 09:27:15;;;;;;;;;;;26.60;99.90;;;;;;5033933;28;19920;-54
2023/09/21 09:29:48;;;;;;;;;;;26.60;99.90;;;;;;5027394;28;19951;-54
2023/09/21 09:32:15;;;;;;;;;;;26.60;99.90;;;;;;5022853;28;19916;-54
2023/09/21 09:34:41;;;;;;;;;;;26.60;99.90;;;;;;5036550;28;19940;-55
2023/09/21 09:37:12;;;;;;;;;;;26.70;99.90;;;;;;5030137;28;20023;-54
2023/09/21 09:39:38;;;;;;;;;;;26.70;99.90;;;;;;5026522;28;19905;-50
2023/09/21 09:42:04;;;;;;;;;;;26.70;99.90;;;;;;5013868;28;20279;-50
2023/09/21 09:44:32;;;;;;;;;;;26.70;99.90;;;;;;5034033;28;19955;-50
2023/09/21 09:47:00;;;;;;;;;;;26.80;99.90;;;;;;5027059;28;20421;-51
2023/09/21 09:49:28;;;;;;;;;;;26.80;99.90;;;;;;5022754;28;19916;-50
2023/09/21 09:51:56;;;;;;;;;;;26.80;99.90;;;;;;5012398;28;20345;-50
2023/09/21 09:54:24;;;;;;;;;;;26.80;99.90;;;;;;5038577;28;19905;-50
2023/09/21 09:56:51;;;;;;;;;;;26.90;99.90;;;;;;5031116;28;19922;-50
2023/09/21 09:59:19;;;;;;;;;;;26.90;99.90;;;;;;5022154;28;19905;-51
2023/09/21 10:01:45;;;;;;;;;;;26.90;99.90;;;;;;5031070;28;19928;-50
2023/09/21 10:04:11;;;;;;;;;;;26.90;99.90;;;;;;5025420;28;19909;-51
2023/09/21 10:06:37;;;;;;;;;;;27.00;99.90;;;;;;5021824;28;19996;-50
2023/09/21 10:09:08;;;;;;;;;;;26.90;99.90;;;;;;5018884;28;20008;-49
2023/09/21 10:11:34;;;;;;;;;;;27.00;99.90;;;;;;5025743;28;19912;-50
2023/09/21 10:14:00;;;;;;;;;;;27.00;99.90;;;;;;5031337;28;19905;-50
2023/09/21 10:16:26;;;;;;;;;;;27.00;99.90;;;;;;5031009;28;19913;-52
2023/09/21 10:18:57;;;;;;;;;;;27.00;99.90;;;;;;5032926;28;19921;-53
2023/09/21 10:21:29;;;;;;;;;;;27.00;99.90;;;;;;5032327;28;19905;-52
2023/09/21 10:24:02;;;;;;;;;;;27.00;99.90;;;;;;5028203;28;20001;-52
2023/09/21 10:26:30;;;;;;;;;;;27.00;99.90;;;;;;5027641;28;20331;-53
2023/09/21 10:28:56;;;;;;;;;;;27.00;99.90;;;;;;5032748;28;19909;-52
2023/09/21 10:31:23;;;;;;;;;;;27.00;99.90;;;;;;5039922;28;20386;-51
2023/09/21 10:33:51;;;;;;;;;;;27.00;99.90;;;;;;5040303;28;19936;-51
2023/09/21 10:36:38;;;;;;;;;;;27.00;99.90;;;;;;5033713;28;19920;-51
2023/09/21 10:39:09;;;;;;;;;;;27.00;99.90;;;;;;5037912;28;19909;-51
2023/09/21 10:41:35;;;;;;;;;;;27.00;99.90;;;;;;5038128;28;19989;-53
2023/09/21 10:44:02;;;;;;;;;;;27.10;99.90;;;;;;5045426;28;19988;-51
2023/09/21 10:46:34;;;;;;;;;;;27.10;99.90;;;;;;5032265;28;20278;-51
2023/09/21 10:49:03;;;;;;;;;;;27.10;99.90;;;;;;5027391;28;19910;-53
2023/09/21 10:51:33;;;;;;;;;;;27.10;99.90;;;;;;5032195;28;20512;-55
2023/09/21 10:53:59;;;;;;;;;;;27.10;99.90;;;;;;5026912;28;19916;-56
2023/09/21 10:56:26;;;;;;;;;;;27.20;99.90;;;;;;5032082;28;19921;-54
2023/09/21 10:58:52;;;;;;;;;;;27.20;99.90;;;;;;5030925;28;19905;-56
2023/09/21 11:01:18;;;;;;;;;;;27.30;99.90;;;;;;5031738;28;20370;-55
2023/09/21 11:03:47;;;;;;;;;;;27.30;99.90;;;;;;5031224;28;19967;-55
2023/09/21 11:06:16;;;;;;;;;;;27.30;99.90;;;;;;5031545;28;19955;-54
2023/09/21 11:08:42;;;;;;;;;;;27.40;99.90;;;;;;5031119;28;19968;-55
2023/09/21 11:11:08;;;;;;;;;;;27.40;99.90;;;;;;5031837;28;19905;-55
2023/09/21 11:13:33;;;;;;;;;;;27.40;99.90;;;;;;5031858;28;20367;-54
2023/09/21 11:15:59;;;;;;;;;;;27.40;99.90;;;;;;5030496;28;20252;-55
2023/09/21 11:18:28;;;;;;;;;;;27.40;99.90;;;;;;5031627;28;19924;-54
2023/09/21 11:20:55;;;;;;;;;;;27.40;99.90;;;;;;5031862;28;20390;-54
2023/09/21 11:23:21;;;;;;;;;;;27.40;99.90;;;;;;5005218;28;19908;-54
2023/09/21 11:25:50;;;;;;;;;;;27.40;99.90;;;;;;5030498;28;20020;-54
2023/09/21 11:28:23;;;;;;;;;;;27.40;99.90;;;;;;5031326;28;20241;-54
2023/09/21 11:30:51;;;;;;;;;;;27.40;99.90;;;;;;5030921;28;19966;-54
2023/09/21 11:33:19;;;;;;;;;;;27.50;99.90;;;;;;5031460;28;20321;-55
2023/09/21 11:35:45;;;;;;;;;;;27.50;99.90;;;;;;5031255;28;19920;-55
2023/09/21 11:38:12;;;;;;;;;;;27.50;99.90;;;;;;5030506;28;19988;-54
2023/09/21 11:40:37;;;;;;;;;;;27.50;99.90;;;;;;5032428;28;19955;-54
2023/09/21 11:43:04;;;;;;;;;;;27.60;99.90;;;;;;5030531;28;19908;-54
2023/09/21 11:45:30;;;;;;;;;;;27.60;99.90;;;;;;5029885;28;19905;-55
2023/09/21 11:47:58;;;;;;;;;;;27.60;99.90;;;;;;5030945;28;20669;-55
2023/09/21 11:50:25;;;;;;;;;;;27.60;99.90;;;;;;5031492;28;19951;-53
2023/09/21 11:52:54;;;;;;;;;;;27.60;99.90;;;;;;5012584;28;19975;-55
2023/09/21 11:55:21;;;;;;;;;;;27.60;99.90;;;;;;5028251;28;19905;-54
2023/09/21 11:57:49;;;;;;;;;;;27.70;99.90;;;;;;5030552;28;19943;-55
2023/09/21 12:00:26;;;;;;;;;;;27.70;99.90;;;;;;5031271;28;20113;-55
2023/09/21 12:02:53;;;;;;;;;;;27.70;99.90;;;;;;5029575;28;19921;-54
2023/09/21 12:05:20;;;;;;;;;;;27.80;99.90;;;;;;5034383;28;19905;-53
2023/09/21 12:07:46;;;;;;;;;;;27.80;99.90;;;;;;5034920;28;19962;-55
2023/09/21 12:10:13;;;;;;;;;;;27.90;99.90;;;;;;5033990;28;19908;-54
2023/09/21 12:12:40;;;;;;;;;;;27.90;99.90;;;;;;5035316;28;20042;-54
2023/09/21 12:15:06;;;;;;;;;;;27.90;99.90;;;;;;5034802;28;19932;-54
2023/09/21 12:17:32;;;;;;;;;;;28.00;99.90;;;;;;5042164;28;19921;-54
2023/09/21 12:20:00;;;;;;;;;;;28.00;99.90;;;;;;5050714;28;20358;-54
2023/09/21 12:22:27;;;;;;;;;;;28.10;99.90;;;;;;5031257;28;20278;-51
2023/09/21 12:24:54;;;;;;;;;;;28.10;99.90;;;;;;5033429;28;19917;-52
2023/09/21 12:27:20;;;;;;;;;;;28.20;99.90;;;;;;5035684;28;20632;-52
2023/09/21 12:29:46;;;;;;;;;;;28.20;99.90;;;;;;5033954;28;20252;-51
2023/09/21 12:32:11;;;;;;;;;;;28.20;99.90;;;;;;5036869;28;19909;-52
2023/09/21 12:34:37;;;;;;;;;;;28.20;99.90;;;;;;5033491;28;20007;-54
2023/09/21 12:37:05;;;;;;;;;;;28.20;99.90;;;;;;5013495;28;19979;-54
2023/09/21 12:39:31;;;;;;;;;;;28.20;99.90;;;;;;5010646;28;20360;-54
2023/09/21 12:41:56;;;;;;;;;;;28.20;99.90;;;;;;5027789;28;19915;-51
2023/09/21 12:44:22;;;;;;;;;;;28.20;99.90;;;;;;5036286;28;19916;-52
2023/09/21 12:46:48;;;;;;;;;;;28.20;99.90;;;;;;5008939;28;19905;-53
2023/09/21 12:49:14;;;;;;;;;;;28.20;99.90;;;;;;5014969;28;20014;-53
2023/09/21 12:51:40;;;;;;;;;;;28.20;99.90;;;;;;5033956;28;20336;-53
2023/09/21 12:54:08;;;;;;;;;;;28.20;99.90;;;;;;5034153;28;19936;-49
2023/09/21 12:56:34;;;;;;;;;;;28.30;99.90;;;;;;5029439;28;19968;-51
2023/09/21 12:58:59;;;;;;;;;;;28.30;99.90;;;;;;5017745;28;19912;-50
2023/09/21 13:01:25;;;;;;;;;;;28.30;99.90;;;;;;5051155;28;19925;-49
2023/09/21 13:03:52;;;;;;;;;;;28.30;99.90;;;;;;5040340;28;20379;-50
2023/09/21 13:06:18;;;;;;;;;;;28.30;99.90;;;;;;5034069;28;19905;-50
2023/09/21 13:08:44;;;;;;;;;;;28.30;99.90;;;;;;5034237;28;19912;-52
2023/09/21 13:11:09;;;;;;;;;;;28.40;99.90;;;;;;5040779;28;20000;-52
2023/09/21 13:13:36;;;;;;;;;;;28.40;99.90;;;;;;5042569;28;19909;-54
2023/09/21 13:16:04;;;;;;;;;;;28.40;99.90;;;;;;5042292;28;19951;-56
2023/09/21 13:18:35;;;;;;;;;;;28.40;99.90;;;;;;5045189;28;20420;-56
2023/09/21 13:21:01;;;;;;;;;;;28.50;99.90;;;;;;5033956;28;19905;-56
2023/09/21 13:23:27;;;;;;;;;;;28.50;99.90;;;;;;5043119;28;19905;-55
2023/09/21 13:25:53;;;;;;;;;;;28.50;99.90;;;;;;5033695;28;20378;-54
2023/09/21 13:28:19;;;;;;;;;;;28.50;99.90;;;;;;5033569;28;20419;-55
2023/09/21 13:30:47;;;;;;;;;;;28.50;99.90;;;;;;5033841;28;19909;-55
2023/09/21 13:33:13;;;;;;;;;;;28.60;99.90;;;;;;5011393;28;19916;-53
2023/09/21 13:35:39;;;;;;;;;;;28.60;99.90;;;;;;5033720;28;20277;-60
2023/09/21 13:38:05;;;;;;;;;;;28.50;99.90;;;;;;5033415;28;19909;-56
2023/09/21 13:40:31;;;;;;;;;;;28.60;99.90;;;;;;5037567;28;19908;-54
2023/09/21 13:42:58;;;;;;;;;;;28.60;99.90;;;;;;5033560;28;19948;-54
2023/09/21 13:45:24;;;;;;;;;;;28.60;99.90;;;;;;5033480;28;19909;-55
2023/09/21 13:47:50;;;;;;;;;;;28.70;99.90;;;;;;5015172;28;19917;-54
2023/09/21 13:50:18;;;;;;;;;;;28.60;99.90;;;;;;5031247;28;19909;-55
2023/09/21 13:52:43;;;;;;;;;;;28.60;99.90;;;;;;5033572;28;19905;-54
2023/09/21 13:55:10;;;;;;;;;;;28.70;99.90;;;;;;5050182;28;19912;-54
2023/09/21 13:57:38;;;;;;;;;;;28.70;99.90;;;;;;5049417;28;19966;-56
2023/09/21 14:00:07;;;;;;;;;;;28.80;99.90;;;;;;5049961;28;19954;-53
2023/09/21 14:02:33;;;;;;;;;;;28.70;99.90;;;;;;5049704;28;19917;-54
2023/09/21 14:04:58;;;;;;;;;;;28.70;99.90;;;;;;5050285;28;19904;-54
2023/09/21 14:07:25;;;;;;;;;;;28.70;99.90;;;;;;5031445;28;19909;-54
2023/09/21 14:09:50;;;;;;;;;;;28.70;99.90;;;;;;5049810;28;19904;-55
2023/09/21 14:12:16;;;;;;;;;;;28.70;99.90;;;;;;5050218;28;20447;-52
2023/09/21 14:14:41;;;;;;;;;;;28.70;99.90;;;;;;5048047;28;19904;-57
2023/09/21 14:17:07;;;;;;;;;;;28.80;99.90;;;;;;5018723;28;19963;-58